sensor_id;sensor_type;location;lat;lon;timestamp;P1;durP1;ratioP1;P2;durP2;ratioP2
36629;SDS011;36256;42.154;23.002;2023-03-03T00:01:47;6.07;;;3.78;;
36629;SDS011;36256;42.154;23.002;2023-03-03T00:04:13;9.27;;;4.73;;
36629;SDS011;36256;42.154;23.002;2023-03-03T00:06:40;6.43;;;4.50;;
36629;SDS011;36256;42.154;23.002;2023-03-03T00:09:06;7.90;;;4.63;;
36629;SDS011;36256;42.154;23.002;2023-03-03T00:11:33;12.27;;;4.78;;
36629;SDS011;36256;42.154;23.002;2023-03-03T00:13:59;9.27;;;4.70;;
36629;SDS011;36256;42.154;23.002;2023-03-03T00:19:14;11.10;;;4.70;;
36629;SDS011;36256;42.154;23.002;2023-03-03T00:21:44;10.18;;;4.53;;
36629;SDS011;36256;42.154;23.002;2023-03-03T00:26:39;10.40;;;4.70;;
36629;SDS011;36256;42.154;23.002;2023-03-03T00:29:33;10.77;;;4.95;;
36629;SDS011;36256;42.154;23.002;2023-03-03T00:34:42;11.25;;;5.25;;
36629;SDS011;36256;42.154;23.002;2023-03-03T00:37:29;9.45;;;5.40;;
36629;SDS011;36256;42.154;23.002;2023-03-03T00:40:08;10.48;;;5.60;;
36629;SDS011;36256;42.154;23.002;2023-03-03T00:42:45;12.15;;;6.38;;
36629;SDS011;36256;42.154;23.002;2023-03-03T00:45:21;12.93;;;6.18;;
36629;SDS011;36256;42.154;23.002;2023-03-03T00:47:53;12.00;;;6.20;;
36629;SDS011;36256;42.154;23.002;2023-03-03T00:53:05;11.75;;;5.68;;
36629;SDS011;36256;42.154;23.002;2023-03-03T00:55:37;14.48;;;5.70;;
36629;SDS011;36256;42.154;23.002;2023-03-03T00:58:04;13.35;;;5.80;;
36629;SDS011;36256;42.154;23.002;2023-03-03T01:00:31;17.90;;;6.47;;
36629;SDS011;36256;42.154;23.002;2023-03-03T01:03:01;9.80;;;5.47;;
36629;SDS011;36256;42.154;23.002;2023-03-03T01:05:32;9.98;;;5.07;;
36629;SDS011;36256;42.154;23.002;2023-03-03T01:07:59;9.45;;;5.07;;
36629;SDS011;36256;42.154;23.002;2023-03-03T01:10:26;8.52;;;5.30;;
36629;SDS011;36256;42.154;23.002;2023-03-03T01:12:55;9.75;;;5.00;;
36629;SDS011;36256;42.154;23.002;2023-03-03T01:15:23;8.30;;;4.85;;
36629;SDS011;36256;42.154;23.002;2023-03-03T01:17:50;11.48;;;5.32;;
36629;SDS011;36256;42.154;23.002;2023-03-03T01:20:17;14.13;;;5.90;;
36629;SDS011;36256;42.154;23.002;2023-03-03T01:22:43;13.27;;;5.40;;
36629;SDS011;36256;42.154;23.002;2023-03-03T01:25:10;17.90;;;5.53;;
36629;SDS011;36256;42.154;23.002;2023-03-03T01:27:37;13.60;;;4.50;;
36629;SDS011;36256;42.154;23.002;2023-03-03T01:30:05;11.90;;;4.72;;
36629;SDS011;36256;42.154;23.002;2023-03-03T01:32:33;19.65;;;5.15;;
36629;SDS011;36256;42.154;23.002;2023-03-03T01:37:27;15.25;;;4.88;;
36629;SDS011;36256;42.154;23.002;2023-03-03T01:39:53;14.00;;;5.10;;
36629;SDS011;36256;42.154;23.002;2023-03-03T01:42:20;18.95;;;4.95;;
36629;SDS011;36256;42.154;23.002;2023-03-03T01:44:47;16.23;;;5.30;;
36629;SDS011;36256;42.154;23.002;2023-03-03T01:47:15;10.98;;;5.07;;
36629;SDS011;36256;42.154;23.002;2023-03-03T01:49:59;21.40;;;4.85;;
36629;SDS011;36256;42.154;23.002;2023-03-03T01:52:34;15.50;;;5.03;;
36629;SDS011;36256;42.154;23.002;2023-03-03T01:55:27;11.40;;;4.88;;
36629;SDS011;36256;42.154;23.002;2023-03-03T01:58:00;22.35;;;6.57;;
36629;SDS011;36256;42.154;23.002;2023-03-03T02:00:34;17.60;;;6.55;;
36629;SDS011;36256;42.154;23.002;2023-03-03T02:03:03;17.90;;;8.15;;
36629;SDS011;36256;42.154;23.002;2023-03-03T02:05:30;15.57;;;6.97;;
36629;SDS011;36256;42.154;23.002;2023-03-03T02:07:58;17.45;;;7.25;;
36629;SDS011;36256;42.154;23.002;2023-03-03T02:10:25;27.42;;;7.60;;
36629;SDS011;36256;42.154;23.002;2023-03-03T02:12:54;24.75;;;7.68;;
36629;SDS011;36256;42.154;23.002;2023-03-03T02:15:23;21.17;;;6.35;;
36629;SDS011;36256;42.154;23.002;2023-03-03T02:17:52;24.25;;;10.88;;
36629;SDS011;36256;42.154;23.002;2023-03-03T02:23:38;26.48;;;10.88;;
36629;SDS011;36256;42.154;23.002;2023-03-03T02:26:17;22.02;;;9.98;;
36629;SDS011;36256;42.154;23.002;2023-03-03T02:28:48;18.17;;;8.60;;
36629;SDS011;36256;42.154;23.002;2023-03-03T02:31:16;18.08;;;7.50;;
36629;SDS011;36256;42.154;23.002;2023-03-03T02:33:46;17.70;;;8.60;;
36629;SDS011;36256;42.154;23.002;2023-03-03T02:36:15;20.10;;;7.68;;
36629;SDS011;36256;42.154;23.002;2023-03-03T02:38:49;20.88;;;7.35;;
36629;SDS011;36256;42.154;23.002;2023-03-03T02:41:33;15.65;;;7.32;;
36629;SDS011;36256;42.154;23.002;2023-03-03T02:44:25;24.17;;;7.53;;
36629;SDS011;36256;42.154;23.002;2023-03-03T02:46:53;17.83;;;7.65;;
36629;SDS011;36256;42.154;23.002;2023-03-03T02:51:51;15.27;;;7.60;;
36629;SDS011;36256;42.154;23.002;2023-03-03T02:56:47;24.95;;;10.40;;
36629;SDS011;36256;42.154;23.002;2023-03-03T02:59:14;21.85;;;9.82;;
36629;SDS011;36256;42.154;23.002;2023-03-03T03:01:41;27.42;;;8.45;;
36629;SDS011;36256;42.154;23.002;2023-03-03T03:04:15;20.63;;;7.97;;
36629;SDS011;36256;42.154;23.002;2023-03-03T03:06:43;19.10;;;7.72;;
36629;SDS011;36256;42.154;23.002;2023-03-03T03:09:11;22.10;;;7.93;;
36629;SDS011;36256;42.154;23.002;2023-03-03T03:11:39;21.58;;;7.28;;
36629;SDS011;36256;42.154;23.002;2023-03-03T03:14:08;20.30;;;8.00;;
36629;SDS011;36256;42.154;23.002;2023-03-03T03:16:36;18.58;;;8.85;;
36629;SDS011;36256;42.154;23.002;2023-03-03T03:19:03;19.40;;;9.55;;
36629;SDS011;36256;42.154;23.002;2023-03-03T03:21:30;21.10;;;9.75;;
36629;SDS011;36256;42.154;23.002;2023-03-03T03:23:58;21.50;;;9.93;;
36629;SDS011;36256;42.154;23.002;2023-03-03T03:28:51;17.42;;;9.10;;
36629;SDS011;36256;42.154;23.002;2023-03-03T03:31:19;16.85;;;8.43;;
36629;SDS011;36256;42.154;23.002;2023-03-03T03:33:46;16.63;;;8.93;;
36629;SDS011;36256;42.154;23.002;2023-03-03T03:36:14;18.13;;;9.30;;
36629;SDS011;36256;42.154;23.002;2023-03-03T03:38:42;23.20;;;10.27;;
36629;SDS011;36256;42.154;23.002;2023-03-03T03:41:10;19.30;;;9.57;;
36629;SDS011;36256;42.154;23.002;2023-03-03T03:43:37;19.25;;;9.80;;
36629;SDS011;36256;42.154;23.002;2023-03-03T03:46:04;25.45;;;10.48;;
36629;SDS011;36256;42.154;23.002;2023-03-03T03:48:31;18.75;;;10.80;;
36629;SDS011;36256;42.154;23.002;2023-03-03T03:50:58;20.38;;;10.55;;
36629;SDS011;36256;42.154;23.002;2023-03-03T03:53:24;19.13;;;10.05;;
36629;SDS011;36256;42.154;23.002;2023-03-03T03:55:51;23.85;;;11.15;;
36629;SDS011;36256;42.154;23.002;2023-03-03T03:58:18;26.35;;;13.90;;
36629;SDS011;36256;42.154;23.002;2023-03-03T04:00:45;25.48;;;13.18;;
36629;SDS011;36256;42.154;23.002;2023-03-03T04:03:13;21.42;;;11.68;;
36629;SDS011;36256;42.154;23.002;2023-03-03T04:05:40;19.20;;;9.57;;
36629;SDS011;36256;42.154;23.002;2023-03-03T04:10:34;20.13;;;9.30;;
36629;SDS011;36256;42.154;23.002;2023-03-03T04:13:01;18.05;;;9.50;;
36629;SDS011;36256;42.154;23.002;2023-03-03T04:15:27;18.02;;;9.32;;
36629;SDS011;36256;42.154;23.002;2023-03-03T04:17:54;17.50;;;10.32;;
36629;SDS011;36256;42.154;23.002;2023-03-03T04:20:20;21.03;;;11.57;;
36629;SDS011;36256;42.154;23.002;2023-03-03T04:22:47;19.80;;;11.60;;
36629;SDS011;36256;42.154;23.002;2023-03-03T04:25:14;22.73;;;12.18;;
36629;SDS011;36256;42.154;23.002;2023-03-03T04:27:42;20.15;;;11.80;;
36629;SDS011;36256;42.154;23.002;2023-03-03T04:30:10;21.35;;;12.80;;
36629;SDS011;36256;42.154;23.002;2023-03-03T04:32:38;26.17;;;13.50;;
36629;SDS011;36256;42.154;23.002;2023-03-03T04:35:05;26.33;;;13.18;;
36629;SDS011;36256;42.154;23.002;2023-03-03T04:37:34;20.92;;;12.43;;
36629;SDS011;36256;42.154;23.002;2023-03-03T04:40:02;21.80;;;11.73;;
36629;SDS011;36256;42.154;23.002;2023-03-03T04:42:30;19.45;;;12.13;;
36629;SDS011;36256;42.154;23.002;2023-03-03T04:44:57;21.00;;;12.57;;
36629;SDS011;36256;42.154;23.002;2023-03-03T04:47:24;20.15;;;12.43;;
36629;SDS011;36256;42.154;23.002;2023-03-03T04:49:51;21.42;;;12.55;;
36629;SDS011;36256;42.154;23.002;2023-03-03T04:52:18;19.60;;;12.27;;
36629;SDS011;36256;42.154;23.002;2023-03-03T04:54:44;23.60;;;13.27;;
36629;SDS011;36256;42.154;23.002;2023-03-03T04:57:11;21.40;;;13.43;;
36629;SDS011;36256;42.154;23.002;2023-03-03T04:59:37;20.63;;;12.52;;
36629;SDS011;36256;42.154;23.002;2023-03-03T05:02:04;21.50;;;12.70;;
36629;SDS011;36256;42.154;23.002;2023-03-03T05:04:31;20.30;;;12.15;;
36629;SDS011;36256;42.154;23.002;2023-03-03T05:06:57;15.85;;;8.73;;
36629;SDS011;36256;42.154;23.002;2023-03-03T05:09:24;24.30;;;12.20;;
36629;SDS011;36256;42.154;23.002;2023-03-03T05:11:51;21.95;;;12.25;;
36629;SDS011;36256;42.154;23.002;2023-03-03T05:14:18;21.48;;;12.23;;
36629;SDS011;36256;42.154;23.002;2023-03-03T05:16:44;23.40;;;12.52;;
36629;SDS011;36256;42.154;23.002;2023-03-03T05:19:11;20.47;;;12.60;;
36629;SDS011;36256;42.154;23.002;2023-03-03T05:21:38;20.75;;;13.00;;
36629;SDS011;36256;42.154;23.002;2023-03-03T05:24:08;22.30;;;13.00;;
36629;SDS011;36256;42.154;23.002;2023-03-03T05:26:36;22.38;;;12.85;;
36629;SDS011;36256;42.154;23.002;2023-03-03T05:29:03;21.75;;;13.25;;
36629;SDS011;36256;42.154;23.002;2023-03-03T05:31:30;22.58;;;12.77;;
36629;SDS011;36256;42.154;23.002;2023-03-03T05:33:57;21.95;;;13.30;;
36629;SDS011;36256;42.154;23.002;2023-03-03T05:36:24;20.25;;;9.50;;
36629;SDS011;36256;42.154;23.002;2023-03-03T05:38:51;20.98;;;12.77;;
36629;SDS011;36256;42.154;23.002;2023-03-03T05:41:17;21.08;;;12.85;;
36629;SDS011;36256;42.154;23.002;2023-03-03T05:43:44;21.55;;;12.45;;
36629;SDS011;36256;42.154;23.002;2023-03-03T05:46:11;20.58;;;13.18;;
36629;SDS011;36256;42.154;23.002;2023-03-03T05:48:37;20.17;;;12.88;;
36629;SDS011;36256;42.154;23.002;2023-03-03T05:51:04;21.92;;;12.63;;
36629;SDS011;36256;42.154;23.002;2023-03-03T05:53:31;22.73;;;13.18;;
36629;SDS011;36256;42.154;23.002;2023-03-03T05:55:57;20.57;;;12.70;;
36629;SDS011;36256;42.154;23.002;2023-03-03T05:58:24;20.95;;;12.50;;
36629;SDS011;36256;42.154;23.002;2023-03-03T06:00:51;21.63;;;12.75;;
36629;SDS011;36256;42.154;23.002;2023-03-03T06:03:17;23.77;;;12.95;;
36629;SDS011;36256;42.154;23.002;2023-03-03T06:05:44;22.88;;;13.00;;
36629;SDS011;36256;42.154;23.002;2023-03-03T06:08:11;21.92;;;13.05;;
36629;SDS011;36256;42.154;23.002;2023-03-03T06:10:37;18.97;;;12.53;;
36629;SDS011;36256;42.154;23.002;2023-03-03T06:13:04;22.07;;;12.97;;
36629;SDS011;36256;42.154;23.002;2023-03-03T06:15:31;21.15;;;12.15;;
36629;SDS011;36256;42.154;23.002;2023-03-03T06:17:57;24.42;;;13.02;;
36629;SDS011;36256;42.154;23.002;2023-03-03T06:20:24;25.33;;;14.53;;
36629;SDS011;36256;42.154;23.002;2023-03-03T06:22:51;23.55;;;13.10;;
36629;SDS011;36256;42.154;23.002;2023-03-03T06:25:17;18.52;;;10.35;;
36629;SDS011;36256;42.154;23.002;2023-03-03T06:27:44;26.85;;;15.35;;
36629;SDS011;36256;42.154;23.002;2023-03-03T06:30:11;25.50;;;15.48;;
36629;SDS011;36256;42.154;23.002;2023-03-03T06:32:38;26.85;;;15.88;;
36629;SDS011;36256;42.154;23.002;2023-03-03T06:35:05;32.70;;;20.02;;
36629;SDS011;36256;42.154;23.002;2023-03-03T06:37:32;31.13;;;18.05;;
36629;SDS011;36256;42.154;23.002;2023-03-03T06:39:59;29.33;;;19.35;;
36629;SDS011;36256;42.154;23.002;2023-03-03T06:42:25;27.88;;;16.45;;
36629;SDS011;36256;42.154;23.002;2023-03-03T06:44:52;28.50;;;17.05;;
36629;SDS011;36256;42.154;23.002;2023-03-03T06:47:19;28.42;;;17.15;;
36629;SDS011;36256;42.154;23.002;2023-03-03T06:49:45;32.45;;;16.55;;
36629;SDS011;36256;42.154;23.002;2023-03-03T06:52:13;30.05;;;15.88;;
36629;SDS011;36256;42.154;23.002;2023-03-03T06:54:45;24.58;;;14.68;;
36629;SDS011;36256;42.154;23.002;2023-03-03T06:57:31;29.53;;;17.20;;
36629;SDS011;36256;42.154;23.002;2023-03-03T07:00:05;34.10;;;17.83;;
36629;SDS011;36256;42.154;23.002;2023-03-03T07:02:36;31.02;;;16.52;;
36629;SDS011;36256;42.154;23.002;2023-03-03T07:05:05;26.77;;;16.65;;
36629;SDS011;36256;42.154;23.002;2023-03-03T07:07:36;29.00;;;15.95;;
36629;SDS011;36256;42.154;23.002;2023-03-03T07:10:05;24.55;;;15.25;;
36629;SDS011;36256;42.154;23.002;2023-03-03T07:12:38;24.20;;;14.90;;
36629;SDS011;36256;42.154;23.002;2023-03-03T07:15:15;25.77;;;15.40;;
36629;SDS011;36256;42.154;23.002;2023-03-03T07:17:46;25.23;;;15.02;;
36629;SDS011;36256;42.154;23.002;2023-03-03T07:20:23;25.80;;;16.23;;
36629;SDS011;36256;42.154;23.002;2023-03-03T07:22:53;24.55;;;15.35;;
36629;SDS011;36256;42.154;23.002;2023-03-03T07:25:22;24.95;;;15.18;;
36629;SDS011;36256;42.154;23.002;2023-03-03T07:28:06;23.70;;;14.65;;
36629;SDS011;36256;42.154;23.002;2023-03-03T07:30:45;24.38;;;16.10;;
36629;SDS011;36256;42.154;23.002;2023-03-03T07:33:17;27.08;;;16.27;;
36629;SDS011;36256;42.154;23.002;2023-03-03T07:35:53;28.67;;;17.25;;
36629;SDS011;36256;42.154;23.002;2023-03-03T07:40:51;27.98;;;17.27;;
36629;SDS011;36256;42.154;23.002;2023-03-03T07:48:37;23.63;;;13.90;;
36629;SDS011;36256;42.154;23.002;2023-03-03T07:51:18;21.35;;;13.38;;
36629;SDS011;36256;42.154;23.002;2023-03-03T07:53:47;18.42;;;12.18;;
36629;SDS011;36256;42.154;23.002;2023-03-03T07:56:21;22.63;;;13.52;;
36629;SDS011;36256;42.154;23.002;2023-03-03T07:58:51;23.05;;;14.20;;
36629;SDS011;36256;42.154;23.002;2023-03-03T08:11:54;14.50;;;9.85;;
36629;SDS011;36256;42.154;23.002;2023-03-03T08:14:36;14.57;;;10.25;;
36629;SDS011;36256;42.154;23.002;2023-03-03T08:17:13;17.27;;;11.10;;
36629;SDS011;36256;42.154;23.002;2023-03-03T08:19:49;14.50;;;9.05;;
36629;SDS011;36256;42.154;23.002;2023-03-03T08:22:19;18.05;;;10.50;;
36629;SDS011;36256;42.154;23.002;2023-03-03T08:25:03;16.13;;;10.90;;
36629;SDS011;36256;42.154;23.002;2023-03-03T08:27:30;16.25;;;9.93;;
36629;SDS011;36256;42.154;23.002;2023-03-03T08:29:56;14.90;;;9.10;;
36629;SDS011;36256;42.154;23.002;2023-03-03T08:32:23;20.10;;;11.77;;
36629;SDS011;36256;42.154;23.002;2023-03-03T08:34:50;19.75;;;12.80;;
36629;SDS011;36256;42.154;23.002;2023-03-03T08:37:16;14.00;;;8.77;;
36629;SDS011;36256;42.154;23.002;2023-03-03T08:39:43;20.67;;;13.02;;
36629;SDS011;36256;42.154;23.002;2023-03-03T08:42:10;19.02;;;11.27;;
36629;SDS011;36256;42.154;23.002;2023-03-03T08:44:37;18.73;;;12.75;;
36629;SDS011;36256;42.154;23.002;2023-03-03T08:49:31;25.45;;;16.20;;
36629;SDS011;36256;42.154;23.002;2023-03-03T08:51:57;20.57;;;12.03;;
36629;SDS011;36256;42.154;23.002;2023-03-03T08:54:25;29.60;;;16.30;;
36629;SDS011;36256;42.154;23.002;2023-03-03T08:56:52;11.93;;;8.23;;
36629;SDS011;36256;42.154;23.002;2023-03-03T08:59:19;16.00;;;9.10;;
36629;SDS011;36256;42.154;23.002;2023-03-03T09:01:45;22.47;;;10.90;;
36629;SDS011;36256;42.154;23.002;2023-03-03T09:04:12;17.48;;;10.43;;
36629;SDS011;36256;42.154;23.002;2023-03-03T09:06:39;19.45;;;12.50;;
36629;SDS011;36256;42.154;23.002;2023-03-03T09:09:05;22.83;;;12.90;;
36629;SDS011;36256;42.154;23.002;2023-03-03T09:11:32;18.80;;;11.43;;
36629;SDS011;36256;42.154;23.002;2023-03-03T09:14:17;18.08;;;12.20;;
36629;SDS011;36256;42.154;23.002;2023-03-03T09:16:46;14.13;;;9.80;;
36629;SDS011;36256;42.154;23.002;2023-03-03T09:19:26;17.25;;;10.55;;
36629;SDS011;36256;42.154;23.002;2023-03-03T09:22:01;18.92;;;12.98;;
36629;SDS011;36256;42.154;23.002;2023-03-03T09:24:36;15.63;;;11.40;;
36629;SDS011;36256;42.154;23.002;2023-03-03T09:27:06;18.10;;;13.77;;
36629;SDS011;36256;42.154;23.002;2023-03-03T09:29:43;16.02;;;11.93;;
36629;SDS011;36256;42.154;23.002;2023-03-03T09:35:00;17.58;;;12.38;;
36629;SDS011;36256;42.154;23.002;2023-03-03T09:38:21;16.75;;;11.68;;
36629;SDS011;36256;42.154;23.002;2023-03-03T09:40:54;41.83;;;29.13;;
36629;SDS011;36256;42.154;23.002;2023-03-03T09:49:33;17.00;;;10.02;;
36629;SDS011;36256;42.154;23.002;2023-03-03T09:58:26;19.02;;;11.73;;
36629;SDS011;36256;42.154;23.002;2023-03-03T10:09:40;19.23;;;12.00;;
36629;SDS011;36256;42.154;23.002;2023-03-03T10:25:37;17.95;;;12.35;;
36629;SDS011;36256;42.154;23.002;2023-03-03T10:42:30;13.77;;;10.27;;
36629;SDS011;36256;42.154;23.002;2023-03-03T10:44:52;16.17;;;10.60;;
36629;SDS011;36256;42.154;23.002;2023-03-03T10:50:01;20.73;;;12.13;;
36629;SDS011;36256;42.154;23.002;2023-03-03T10:52:41;16.52;;;10.45;;
36629;SDS011;36256;42.154;23.002;2023-03-03T11:01:07;16.23;;;11.13;;
36629;SDS011;36256;42.154;23.002;2023-03-03T11:06:28;13.40;;;9.35;;
36629;SDS011;36256;42.154;23.002;2023-03-03T11:20:55;12.52;;;7.88;;
36629;SDS011;36256;42.154;23.002;2023-03-03T11:23:52;14.05;;;8.10;;
36629;SDS011;36256;42.154;23.002;2023-03-03T11:34:08;11.90;;;8.18;;
36629;SDS011;36256;42.154;23.002;2023-03-03T11:37:06;13.00;;;7.97;;
36629;SDS011;36256;42.154;23.002;2023-03-03T11:39:35;12.13;;;7.95;;
36629;SDS011;36256;42.154;23.002;2023-03-03T11:42:19;14.07;;;7.35;;
36629;SDS011;36256;42.154;23.002;2023-03-03T11:45:39;9.63;;;6.97;;
36629;SDS011;36256;42.154;23.002;2023-03-03T11:48:21;9.63;;;6.63;;
36629;SDS011;36256;42.154;23.002;2023-03-03T11:51:16;10.75;;;6.70;;
36629;SDS011;36256;42.154;23.002;2023-03-03T11:56:41;11.23;;;7.25;;
36629;SDS011;36256;42.154;23.002;2023-03-03T12:01:56;12.80;;;8.30;;
36629;SDS011;36256;42.154;23.002;2023-03-03T12:04:38;13.50;;;8.77;;
36629;SDS011;36256;42.154;23.002;2023-03-03T12:07:51;12.65;;;8.55;;
36629;SDS011;36256;42.154;23.002;2023-03-03T12:13:04;10.63;;;6.55;;
36629;SDS011;36256;42.154;23.002;2023-03-03T12:15:57;11.77;;;7.30;;
36629;SDS011;36256;42.154;23.002;2023-03-03T12:37:27;12.68;;;8.52;;
36629;SDS011;36256;42.154;23.002;2023-03-03T12:40:33;10.82;;;7.97;;
36629;SDS011;36256;42.154;23.002;2023-03-03T12:43:02;12.73;;;8.45;;
36629;SDS011;36256;42.154;23.002;2023-03-03T12:48:34;14.35;;;8.77;;
36629;SDS011;36256;42.154;23.002;2023-03-03T12:57:00;15.07;;;10.07;;
36629;SDS011;36256;42.154;23.002;2023-03-03T12:59:53;14.77;;;9.68;;
36629;SDS011;36256;42.154;23.002;2023-03-03T13:07:58;14.05;;;10.00;;
36629;SDS011;36256;42.154;23.002;2023-03-03T13:10:40;16.27;;;12.32;;
36629;SDS011;36256;42.154;23.002;2023-03-03T13:13:16;16.80;;;10.45;;
36629;SDS011;36256;42.154;23.002;2023-03-03T13:15:59;15.80;;;10.60;;
36629;SDS011;36256;42.154;23.002;2023-03-03T13:21:23;16.73;;;10.30;;
36629;SDS011;36256;42.154;23.002;2023-03-03T13:27:11;17.70;;;11.82;;
36629;SDS011;36256;42.154;23.002;2023-03-03T13:29:51;14.93;;;10.50;;
36629;SDS011;36256;42.154;23.002;2023-03-03T13:32:36;14.45;;;10.80;;
36629;SDS011;36256;42.154;23.002;2023-03-03T13:38:03;16.75;;;11.73;;
36629;SDS011;36256;42.154;23.002;2023-03-03T13:40:39;16.73;;;12.13;;
36629;SDS011;36256;42.154;23.002;2023-03-03T13:43:21;19.83;;;12.07;;
36629;SDS011;36256;42.154;23.002;2023-03-03T13:45:56;20.33;;;12.20;;
36629;SDS011;36256;42.154;23.002;2023-03-03T13:54:15;16.52;;;11.57;;
36629;SDS011;36256;42.154;23.002;2023-03-03T14:05:48;14.68;;;10.63;;
36629;SDS011;36256;42.154;23.002;2023-03-03T14:16:16;14.88;;;10.38;;
36629;SDS011;36256;42.154;23.002;2023-03-03T14:18:59;16.58;;;10.98;;
36629;SDS011;36256;42.154;23.002;2023-03-03T14:21:34;14.55;;;10.35;;
36629;SDS011;36256;42.154;23.002;2023-03-03T14:24:11;16.77;;;10.52;;
36629;SDS011;36256;42.154;23.002;2023-03-03T14:26:49;14.47;;;10.00;;
36629;SDS011;36256;42.154;23.002;2023-03-03T14:31:53;12.23;;;9.45;;
36629;SDS011;36256;42.154;23.002;2023-03-03T14:34:37;17.80;;;12.30;;
36629;SDS011;36256;42.154;23.002;2023-03-03T14:39:50;21.02;;;13.50;;
36629;SDS011;36256;42.154;23.002;2023-03-03T14:42:30;14.95;;;11.57;;
36629;SDS011;36256;42.154;23.002;2023-03-03T14:44:59;14.15;;;10.45;;
36629;SDS011;36256;42.154;23.002;2023-03-03T14:47:29;14.60;;;10.63;;
36629;SDS011;36256;42.154;23.002;2023-03-03T14:49:56;17.45;;;12.20;;
36629;SDS011;36256;42.154;23.002;2023-03-03T14:52:26;18.25;;;13.13;;
36629;SDS011;36256;42.154;23.002;2023-03-03T14:54:58;16.42;;;11.73;;
36629;SDS011;36256;42.154;23.002;2023-03-03T15:05:26;17.42;;;12.05;;
36629;SDS011;36256;42.154;23.002;2023-03-03T15:10:34;17.27;;;12.73;;
36629;SDS011;36256;42.154;23.002;2023-03-03T15:18:49;25.92;;;18.65;;
36629;SDS011;36256;42.154;23.002;2023-03-03T15:21:30;25.08;;;17.17;;
36629;SDS011;36256;42.154;23.002;2023-03-03T15:24:09;26.70;;;16.77;;
36629;SDS011;36256;42.154;23.002;2023-03-03T15:32:41;24.83;;;16.87;;
36629;SDS011;36256;42.154;23.002;2023-03-03T15:35:27;27.95;;;17.10;;
36629;SDS011;36256;42.154;23.002;2023-03-03T15:38:08;20.13;;;14.20;;
36629;SDS011;36256;42.154;23.002;2023-03-03T15:40:50;27.67;;;16.60;;
36629;SDS011;36256;42.154;23.002;2023-03-03T15:43:42;25.13;;;16.77;;
36629;SDS011;36256;42.154;23.002;2023-03-03T15:47:06;22.73;;;14.95;;
36629;SDS011;36256;42.154;23.002;2023-03-03T15:55:18;26.63;;;17.80;;
36629;SDS011;36256;42.154;23.002;2023-03-03T16:03:30;19.08;;;12.20;;
36629;SDS011;36256;42.154;23.002;2023-03-03T16:06:06;21.95;;;12.93;;
36629;SDS011;36256;42.154;23.002;2023-03-03T16:16:53;19.20;;;13.52;;
36629;SDS011;36256;42.154;23.002;2023-03-03T16:20:11;26.35;;;17.65;;
36629;SDS011;36256;42.154;23.002;2023-03-03T16:42:02;22.30;;;14.85;;
36629;SDS011;36256;42.154;23.002;2023-03-03T16:44:37;19.63;;;13.52;;
36629;SDS011;36256;42.154;23.002;2023-03-03T16:56:09;22.98;;;14.13;;
36629;SDS011;36256;42.154;23.002;2023-03-03T17:04:00;38.05;;;19.55;;
36629;SDS011;36256;42.154;23.002;2023-03-03T17:06:52;28.27;;;17.33;;
36629;SDS011;36256;42.154;23.002;2023-03-03T17:09:32;20.50;;;13.07;;
36629;SDS011;36256;42.154;23.002;2023-03-03T17:17:41;23.37;;;14.00;;
36629;SDS011;36256;42.154;23.002;2023-03-03T17:23:34;16.25;;;10.82;;
36629;SDS011;36256;42.154;23.002;2023-03-03T17:26:11;17.85;;;11.82;;
36629;SDS011;36256;42.154;23.002;2023-03-03T17:31:18;15.70;;;11.83;;
36629;SDS011;36256;42.154;23.002;2023-03-03T17:41:59;23.92;;;13.82;;
36629;SDS011;36256;42.154;23.002;2023-03-03T17:44:33;21.25;;;13.85;;
36629;SDS011;36256;42.154;23.002;2023-03-03T17:47:08;21.25;;;14.27;;
36629;SDS011;36256;42.154;23.002;2023-03-03T17:55:44;19.92;;;13.63;;
36629;SDS011;36256;42.154;23.002;2023-03-03T18:04:02;18.63;;;12.10;;
36629;SDS011;36256;42.154;23.002;2023-03-03T18:07:02;19.50;;;13.20;;
36629;SDS011;36256;42.154;23.002;2023-03-03T18:12:55;21.65;;;14.93;;
36629;SDS011;36256;42.154;23.002;2023-03-03T18:21:30;27.00;;;19.02;;
36629;SDS011;36256;42.154;23.002;2023-03-03T18:26:51;23.33;;;15.63;;
36629;SDS011;36256;42.154;23.002;2023-03-03T18:29:27;22.40;;;14.13;;
36629;SDS011;36256;42.154;23.002;2023-03-03T18:37:07;20.77;;;12.68;;
36629;SDS011;36256;42.154;23.002;2023-03-03T18:42:31;21.63;;;14.48;;
36629;SDS011;36256;42.154;23.002;2023-03-03T18:50:44;20.23;;;14.05;;
36629;SDS011;36256;42.154;23.002;2023-03-03T18:53:29;18.65;;;11.73;;
36629;SDS011;36256;42.154;23.002;2023-03-03T18:56:00;16.10;;;11.30;;
36629;SDS011;36256;42.154;23.002;2023-03-03T18:58:35;16.35;;;11.55;;
36629;SDS011;36256;42.154;23.002;2023-03-03T19:01:11;16.55;;;11.15;;
36629;SDS011;36256;42.154;23.002;2023-03-03T19:04:09;16.17;;;10.43;;
36629;SDS011;36256;42.154;23.002;2023-03-03T19:09:16;14.90;;;10.53;;
36629;SDS011;36256;42.154;23.002;2023-03-03T19:11:49;14.75;;;9.43;;
36629;SDS011;36256;42.154;23.002;2023-03-03T19:16:56;25.92;;;15.70;;
36629;SDS011;36256;42.154;23.002;2023-03-03T19:19:28;24.60;;;17.05;;
36629;SDS011;36256;42.154;23.002;2023-03-03T19:46:48;15.52;;;10.90;;
36629;SDS011;36256;42.154;23.002;2023-03-03T19:57:16;12.23;;;8.88;;
36629;SDS011;36256;42.154;23.002;2023-03-03T20:00:02;12.85;;;9.18;;
36629;SDS011;36256;42.154;23.002;2023-03-03T20:02:41;12.35;;;9.00;;
36629;SDS011;36256;42.154;23.002;2023-03-03T20:08:05;12.38;;;8.90;;
36629;SDS011;36256;42.154;23.002;2023-03-03T20:16:14;13.85;;;9.10;;
36629;SDS011;36256;42.154;23.002;2023-03-03T20:27:13;18.88;;;9.18;;
36629;SDS011;36256;42.154;23.002;2023-03-03T20:29:51;15.20;;;9.68;;
36629;SDS011;36256;42.154;23.002;2023-03-03T20:41:03;12.25;;;8.52;;
36629;SDS011;36256;42.154;23.002;2023-03-03T20:54:43;14.23;;;9.15;;
36629;SDS011;36256;42.154;23.002;2023-03-03T21:05:21;13.43;;;9.40;;
36629;SDS011;36256;42.154;23.002;2023-03-03T21:10:26;12.35;;;8.70;;
36629;SDS011;36256;42.154;23.002;2023-03-03T21:13:19;13.05;;;9.45;;
36629;SDS011;36256;42.154;23.002;2023-03-03T21:16:05;13.35;;;8.98;;
36629;SDS011;36256;42.154;23.002;2023-03-03T21:18:54;17.05;;;9.25;;
36629;SDS011;36256;42.154;23.002;2023-03-03T21:21:23;11.85;;;8.77;;
36629;SDS011;36256;42.154;23.002;2023-03-03T21:23:50;13.38;;;9.77;;
36629;SDS011;36256;42.154;23.002;2023-03-03T21:29:15;12.00;;;8.60;;
36629;SDS011;36256;42.154;23.002;2023-03-03T21:31:47;11.88;;;9.07;;
36629;SDS011;36256;42.154;23.002;2023-03-03T21:34:17;13.93;;;9.38;;
36629;SDS011;36256;42.154;23.002;2023-03-03T21:36:46;12.95;;;8.63;;
36629;SDS011;36256;42.154;23.002;2023-03-03T21:42:08;11.68;;;8.23;;
36629;SDS011;36256;42.154;23.002;2023-03-03T21:44:41;11.43;;;8.13;;
36629;SDS011;36256;42.154;23.002;2023-03-03T21:47:10;14.30;;;8.55;;
36629;SDS011;36256;42.154;23.002;2023-03-03T21:49:41;12.00;;;8.60;;
36629;SDS011;36256;42.154;23.002;2023-03-03T21:52:10;11.93;;;8.68;;
36629;SDS011;36256;42.154;23.002;2023-03-03T21:54:39;12.82;;;8.55;;
36629;SDS011;36256;42.154;23.002;2023-03-03T21:57:06;13.10;;;8.60;;